createdAt,value
2018-11-10T00:02:06.434Z,105.53
2018-11-10T00:04:34.598Z,115.73
2018-11-10T00:07:02.833Z,121.90
2018-11-10T00:09:31.049Z,101.40
2018-11-10T00:11:59.176Z,104.23
2018-11-10T00:14:27.337Z,107.37
2018-11-10T00:16:55.443Z,111.67
2018-11-10T00:19:23.587Z,107.73
2018-11-10T00:21:51.764Z,104.27
2018-11-10T00:24:20.010Z,100.77
2018-11-10T00:26:48.160Z,101.87
2018-11-10T00:29:16.299Z,105.07
2018-11-10T00:31:44.434Z,111.60
2018-11-10T00:34:12.621Z,107.67
2018-11-10T00:36:40.812Z,111.87
2018-11-10T00:39:09.717Z,97.97
2018-11-10T00:41:37.966Z,105.63
2018-11-10T00:44:06.146Z,108.77
2018-11-10T00:46:34.317Z,112.57
2018-11-10T00:49:02.641Z,108.50
2018-11-10T00:51:30.927Z,107.77
2018-11-10T00:53:59.063Z,109.60
2018-11-10T00:56:27.401Z,101.23
2018-11-10T00:58:55.512Z,122.50
2018-11-10T01:01:30.534Z,114.93
2018-11-10T01:03:58.687Z,136.80
2018-11-10T01:06:26.883Z,121.27
2018-11-10T01:08:55.080Z,124.00
2018-11-10T01:11:23.238Z,113.47
2018-11-10T01:13:51.417Z,125.30
2018-11-10T01:16:19.541Z,119.60
2018-11-10T01:18:47.643Z,118.67
2018-11-10T01:21:15.765Z,117.20
2018-11-10T01:23:43.897Z,113.00
2018-11-10T01:26:12.063Z,110.83
2018-11-10T01:28:40.357Z,109.57
2018-11-10T01:31:08.581Z,116.80
2018-11-10T01:33:36.899Z,105.40
2018-11-10T01:36:05.191Z,119.27
2018-11-10T01:38:33.400Z,122.27
2018-11-10T01:41:01.497Z,118.00
2018-11-10T01:43:29.642Z,117.00
2018-11-10T01:45:57.812Z,110.57
2018-11-10T01:48:25.985Z,108.73
2018-11-10T01:50:54.099Z,106.20
2018-11-10T01:53:22.355Z,117.27
2018-11-10T01:55:50.472Z,112.17
2018-11-10T01:58:18.649Z,114.83
2018-11-10T02:00:46.996Z,114.90
2018-11-10T02:03:15.127Z,137.37
2018-11-10T02:05:49.861Z,125.60
2018-11-10T02:08:17.987Z,116.67
2018-11-10T02:10:46.092Z,117.63
2018-11-10T02:13:14.217Z,123.97
2018-11-10T02:15:42.377Z,116.67
2018-11-10T02:18:10.539Z,116.87
2018-11-10T02:20:38.699Z,122.77
2018-11-10T02:23:06.811Z,108.03
2018-11-10T02:25:34.971Z,117.93
2018-11-10T02:28:03.348Z,109.23
2018-11-10T02:30:31.547Z,115.80
2018-11-10T02:32:59.863Z,114.83
2018-11-10T02:35:28.032Z,112.27
2018-11-10T02:37:56.204Z,111.37
2018-11-10T02:40:24.378Z,117.83
2018-11-10T02:42:52.653Z,113.60
2018-11-10T02:45:20.773Z,124.07
2018-11-10T02:47:48.895Z,128.97
2018-11-10T02:50:17.013Z,120.60
2018-11-10T02:52:45.156Z,121.90
2018-11-10T02:55:13.296Z,106.80
2018-11-10T02:57:41.935Z,115.07
2018-11-10T03:00:11.269Z,99.73
2018-11-10T03:02:39.529Z,110.23
2018-11-10T03:05:08.030Z,129.47
2018-11-10T03:07:36.404Z,108.80
2018-11-10T03:10:05.208Z,124.87
2018-11-10T03:12:33.345Z,111.30
2018-11-10T03:15:01.488Z,117.90
2018-11-10T03:17:29.632Z,130.40
2018-11-10T03:19:57.771Z,106.30
2018-11-10T03:22:25.953Z,114.57
2018-11-10T03:24:54.092Z,118.47
2018-11-10T03:27:22.277Z,125.37
2018-11-10T03:29:50.403Z,122.30
2018-11-10T03:32:18.577Z,110.90
2018-11-10T03:34:46.715Z,112.03
2018-11-10T03:37:14.830Z,111.13
2018-11-10T03:39:42.924Z,107.60
2018-11-10T03:42:11.059Z,97.47
2018-11-10T03:44:39.185Z,100.47
2018-11-10T03:47:07.301Z,95.20
2018-11-10T03:49:35.375Z,97.50
2018-11-10T03:52:03.483Z,101.70
2018-11-10T03:54:31.573Z,90.67
2018-11-10T03:56:59.694Z,105.53
2018-11-10T03:59:27.965Z,90.73
2018-11-10T04:01:56.229Z,101.80
2018-11-10T04:04:24.372Z,81.93
2018-11-10T04:06:52.489Z,82.70
2018-11-10T04:09:20.715Z,81.83
2018-11-10T04:11:48.831Z,94.13
2018-11-10T04:14:16.964Z,85.17
2018-11-10T04:16:45.203Z,85.53
2018-11-10T04:19:13.602Z,74.47
2018-11-10T04:21:41.707Z,85.60
2018-11-10T04:24:09.935Z,84.10
2018-11-10T04:26:38.171Z,81.77
2018-11-10T04:29:06.617Z,71.17
2018-11-10T04:31:34.881Z,74.73
2018-11-10T04:34:03.041Z,72.30
2018-11-10T04:36:31.207Z,74.57
2018-11-10T04:38:59.335Z,76.30
2018-11-10T04:41:27.435Z,79.07
2018-11-10T04:43:55.683Z,74.70
2018-11-10T04:46:23.821Z,92.00
2018-11-10T04:48:51.981Z,74.87
2018-11-10T04:51:20.287Z,74.30
2018-11-10T04:53:48.380Z,71.67
2018-11-10T04:56:16.544Z,79.40
2018-11-10T04:58:44.721Z,75.23
2018-11-10T05:01:12.877Z,79.60
2018-11-10T05:03:41.094Z,79.80
2018-11-10T05:06:09.217Z,76.23
2018-11-10T05:08:37.371Z,80.00
2018-11-10T05:11:06.064Z,78.93
2018-11-10T05:13:34.172Z,81.53
2018-11-10T05:16:02.396Z,78.20
2018-11-10T05:18:31.411Z,82.60
2018-11-10T05:20:59.584Z,77.77
2018-11-10T05:23:27.725Z,79.17
2018-11-10T05:25:55.960Z,74.57
2018-11-10T05:28:24.185Z,72.33
2018-11-10T05:30:52.336Z,80.70
2018-11-10T05:33:20.471Z,67.50
2018-11-10T05:35:48.626Z,79.70
2018-11-10T05:38:16.738Z,71.93
2018-11-10T05:40:44.867Z,66.67
2018-11-10T05:43:12.988Z,73.70
2018-11-10T05:45:41.120Z,71.97
2018-11-10T05:48:09.332Z,75.10
2018-11-10T05:50:37.468Z,73.23
2018-11-10T05:53:05.701Z,72.13
2018-11-10T05:55:33.829Z,78.80
2018-11-10T05:58:02.173Z,73.93
2018-11-10T06:00:30.298Z,78.90
2018-11-10T06:02:58.517Z,61.13
2018-11-10T06:05:26.586Z,69.10
2018-11-10T06:07:54.666Z,72.07
2018-11-10T06:10:22.897Z,67.70
2018-11-10T06:12:50.925Z,70.67
2018-11-10T06:15:18.995Z,70.23
2018-11-10T06:17:47.141Z,70.23
2018-11-10T06:20:15.279Z,69.50
2018-11-10T06:22:43.387Z,71.13
2018-11-10T06:25:11.956Z,67.43
2018-11-10T06:27:40.338Z,69.27
2018-11-10T06:30:09.719Z,62.43
2018-11-10T06:32:38.181Z,69.70
2018-11-10T06:35:06.569Z,71.57
2018-11-10T06:37:34.898Z,61.90
2018-11-10T06:40:03.047Z,70.43
2018-11-10T06:42:31.245Z,63.03
2018-11-10T06:44:59.364Z,71.70
2018-11-10T06:47:27.498Z,68.97
2018-11-10T06:49:55.623Z,64.20
2018-11-10T06:52:23.755Z,62.40
2018-11-10T06:54:51.856Z,72.90
2018-11-10T06:57:20.053Z,76.03
2018-11-10T06:59:48.179Z,64.07
2018-11-10T07:02:16.323Z,63.60
2018-11-10T07:04:44.499Z,68.80
2018-11-10T07:07:12.613Z,69.57
2018-11-10T07:09:40.730Z,66.17
2018-11-10T07:12:08.841Z,70.87
2018-11-10T07:14:36.986Z,69.80
2018-11-10T07:17:05.335Z,71.07
2018-11-10T07:19:33.488Z,63.87
2018-11-10T07:22:01.649Z,77.63
2018-11-10T07:24:29.837Z,64.83
2018-11-10T07:26:57.944Z,71.10
2018-11-10T07:29:26.094Z,72.80
2018-11-10T07:31:54.333Z,75.43
2018-11-10T07:34:22.388Z,80.07
2018-11-10T07:36:50.522Z,73.47
2018-11-10T07:39:18.712Z,74.63
2018-11-10T07:41:46.844Z,76.83
2018-11-10T07:44:15.040Z,70.57
2018-11-10T07:46:43.176Z,75.27
2018-11-10T07:49:11.326Z,70.27
2018-11-10T07:51:39.407Z,76.03
2018-11-10T07:54:07.563Z,86.73
2018-11-10T07:56:35.657Z,78.83
2018-11-10T07:59:03.784Z,67.37
2018-11-10T08:01:31.985Z,74.57
2018-11-10T08:04:00.101Z,70.23
2018-11-10T08:06:28.233Z,72.43
2018-11-10T08:08:56.350Z,74.57
2018-11-10T08:11:24.468Z,78.67
2018-11-10T08:13:52.750Z,70.70
2018-11-10T08:16:20.886Z,69.73
2018-11-10T08:18:49.097Z,69.50
2018-11-10T08:21:17.476Z,76.77
2018-11-10T08:23:45.759Z,68.53
2018-11-10T08:26:13.932Z,71.17
2018-11-10T08:28:42.089Z,71.93
2018-11-10T08:31:10.322Z,66.23
2018-11-10T08:33:38.445Z,75.73
2018-11-10T08:36:06.606Z,68.83
2018-11-10T08:38:34.768Z,71.50
2018-11-10T08:41:02.878Z,66.07
2018-11-10T08:43:31.028Z,68.30
2018-11-10T08:45:59.246Z,75.47
2018-11-10T08:48:27.395Z,69.73
2018-11-10T08:50:55.583Z,64.80
2018-11-10T08:53:23.730Z,70.53
2018-11-10T08:55:51.900Z,68.50
2018-11-10T08:58:20.120Z,73.13
2018-11-10T09:00:48.304Z,75.70
2018-11-10T09:03:16.475Z,73.73
2018-11-10T09:05:44.672Z,75.13
2018-11-10T09:08:12.879Z,76.83
2018-11-10T09:10:41.026Z,70.53
2018-11-10T09:13:09.147Z,71.47
2018-11-10T09:15:37.318Z,71.57
2018-11-10T09:18:05.914Z,65.03
2018-11-10T09:20:34.069Z,68.87
2018-11-10T09:23:02.242Z,68.23
2018-11-10T09:25:30.367Z,68.63
2018-11-10T09:27:58.642Z,69.60
2018-11-10T09:30:26.785Z,64.57
2018-11-10T09:32:55.116Z,73.43
2018-11-10T09:35:23.278Z,70.53
2018-11-10T09:37:51.402Z,66.57
2018-11-10T09:40:19.520Z,62.37
2018-11-10T09:42:47.684Z,64.20
2018-11-10T09:45:16.806Z,57.90
2018-11-10T09:47:44.944Z,61.83
2018-11-10T09:50:16.534Z,60.73
2018-11-10T09:52:45.136Z,56.27
2018-11-10T09:55:14.008Z,62.73
2018-11-10T09:57:42.193Z,64.60
2018-11-10T10:00:15.901Z,66.30
2018-11-10T10:02:44.465Z,59.80
2018-11-10T10:05:12.656Z,62.27
2018-11-10T10:07:41.670Z,68.00
2018-11-10T10:10:11.590Z,68.40
2018-11-10T10:12:39.781Z,55.80
2018-11-10T10:15:09.998Z,66.40
2018-11-10T10:17:38.382Z,60.10
2018-11-10T10:20:09.032Z,61.70
2018-11-10T10:22:37.166Z,64.60
2018-11-10T10:25:06.508Z,55.13
2018-11-10T10:27:34.722Z,60.13
2018-11-10T10:30:03.021Z,57.50
2018-11-10T10:32:31.190Z,59.77
2018-11-10T10:34:59.465Z,59.67
2018-11-10T10:37:27.646Z,54.50
2018-11-10T10:39:55.801Z,55.40
2018-11-10T10:42:24.014Z,53.50
2018-11-10T10:44:52.230Z,58.83
2018-11-10T10:47:20.401Z,57.30
2018-11-10T10:49:48.642Z,49.97
2018-11-10T10:52:16.823Z,58.73
2018-11-10T10:54:45.040Z,56.67
2018-11-10T10:57:13.683Z,60.17
2018-11-10T10:59:41.812Z,52.77
2018-11-10T11:02:15.264Z,55.90
2018-11-10T11:04:44.298Z,52.57
2018-11-10T11:07:12.468Z,55.60
2018-11-10T11:09:40.943Z,52.67
2018-11-10T11:12:09.149Z,53.13
2018-11-10T11:14:37.302Z,50.60
2018-11-10T11:17:05.618Z,56.20
2018-11-10T11:19:33.892Z,57.23
2018-11-10T11:22:02.296Z,56.60
2018-11-10T11:24:30.517Z,53.30
2018-11-10T11:26:58.973Z,127.93
2018-11-10T11:29:27.231Z,53.83
2018-11-10T11:31:55.266Z,48.50
2018-11-10T11:34:23.396Z,53.93
2018-11-10T11:36:51.604Z,48.37
2018-11-10T11:39:20.068Z,53.53
2018-11-10T11:41:48.380Z,52.83
2018-11-10T11:44:16.505Z,52.47
2018-11-10T11:46:44.660Z,44.63
2018-11-10T11:49:12.805Z,45.83
2018-11-10T11:51:41.020Z,46.80
2018-11-10T11:54:09.236Z,43.63
2018-11-10T11:56:37.396Z,42.00
2018-11-10T11:59:05.852Z,47.20
2018-11-10T12:01:34.098Z,44.37
2018-11-10T12:04:02.345Z,46.07
2018-11-10T12:06:30.551Z,52.90
2018-11-10T12:08:58.682Z,46.30
2018-11-10T12:11:26.838Z,43.60
2018-11-10T12:13:54.958Z,49.33
2018-11-10T12:16:27.183Z,52.90
2018-11-10T12:18:51.301Z,46.63
2018-11-10T12:21:19.446Z,49.97
2018-11-10T12:23:47.616Z,54.47
2018-11-10T12:26:15.779Z,48.07
2018-11-10T12:28:43.976Z,51.63
2018-11-10T12:31:12.096Z,45.23
2018-11-10T12:33:40.250Z,53.20
2018-11-10T12:36:08.392Z,45.43
2018-11-10T12:38:36.587Z,42.90
2018-11-10T12:41:04.672Z,41.60
2018-11-10T12:43:32.910Z,41.00
2018-11-10T12:46:01.160Z,45.87
2018-11-10T12:48:29.338Z,53.50
2018-11-10T12:50:57.452Z,40.37
2018-11-10T12:53:25.615Z,42.93
2018-11-10T12:55:53.811Z,42.30
2018-11-10T12:58:21.964Z,46.07
2018-11-10T13:00:50.131Z,42.00
2018-11-10T13:03:18.297Z,44.50
2018-11-10T13:05:46.439Z,41.40
2018-11-10T13:08:14.733Z,41.50
2018-11-10T13:10:42.837Z,61.17
2018-11-10T13:13:11.022Z,41.47
2018-11-10T13:15:39.261Z,42.03
2018-11-10T13:18:07.409Z,37.17
2018-11-10T13:20:35.565Z,45.83
2018-11-10T13:23:03.747Z,43.17
2018-11-10T13:25:31.868Z,35.87
2018-11-10T13:28:00.009Z,41.77
2018-11-10T13:30:28.199Z,46.27
2018-11-10T13:32:56.341Z,49.97
2018-11-10T13:35:24.519Z,45.23
2018-11-10T13:37:52.652Z,41.77
2018-11-10T13:40:20.838Z,42.63
2018-11-10T13:42:49.013Z,48.27
2018-11-10T13:45:17.323Z,42.93
2018-11-10T13:47:45.617Z,39.13
2018-11-10T13:50:13.857Z,57.77
2018-11-10T13:52:43.186Z,41.07
2018-11-10T13:55:11.214Z,40.27
2018-11-10T13:57:39.729Z,42.57
2018-11-10T14:00:10.230Z,49.57
2018-11-10T14:02:38.369Z,40.20
2018-11-10T14:05:06.730Z,42.03
2018-11-10T14:07:34.944Z,41.07
2018-11-10T14:10:03.121Z,41.83
2018-11-10T14:12:31.311Z,40.87
2018-11-10T14:14:59.485Z,36.90
2018-11-10T14:17:27.722Z,37.20
2018-11-10T14:19:55.913Z,38.53
2018-11-10T14:22:24.103Z,37.57
2018-11-10T14:24:52.349Z,38.60
2018-11-10T14:27:20.517Z,42.67
2018-11-10T14:29:48.705Z,38.00
2018-11-10T14:32:16.927Z,40.17
2018-11-10T14:34:45.117Z,43.27
2018-11-10T14:37:13.386Z,35.10
2018-11-10T14:39:41.565Z,39.27
2018-11-10T14:42:09.717Z,44.87
2018-11-10T14:44:38.183Z,38.93
2018-11-10T14:47:13.121Z,37.70
2018-11-10T14:49:41.367Z,40.87
2018-11-10T14:52:09.547Z,42.90
2018-11-10T14:54:37.812Z,39.70
2018-11-10T14:57:06.191Z,44.83
2018-11-10T14:59:34.389Z,38.17
2018-11-10T15:02:02.651Z,39.33
2018-11-10T15:04:30.780Z,39.00
2018-11-10T15:06:59.146Z,40.17
2018-11-10T15:09:27.305Z,43.37
2018-11-10T15:11:55.574Z,42.57
2018-11-10T15:14:23.606Z,42.20
2018-11-10T15:16:52.065Z,41.30
2018-11-10T15:19:20.191Z,46.53
2018-11-10T15:21:48.343Z,41.20
2018-11-10T15:24:16.551Z,42.23
2018-11-10T15:26:44.710Z,46.97
2018-11-10T15:29:12.934Z,40.93
2018-11-10T15:31:41.213Z,52.03
2018-11-10T15:34:09.466Z,49.10
2018-11-10T15:36:37.674Z,49.37
2018-11-10T15:39:06.703Z,40.27
2018-11-10T15:41:34.854Z,45.00
2018-11-10T15:44:03.051Z,49.47
2018-11-10T15:46:31.228Z,46.17
2018-11-10T15:48:59.390Z,51.93
2018-11-10T15:51:27.576Z,49.80
2018-11-10T15:53:55.719Z,46.47
2018-11-10T15:56:23.909Z,52.43
2018-11-10T15:58:52.088Z,48.87
2018-11-10T16:01:20.262Z,45.40
2018-11-10T16:03:48.483Z,48.23
2018-11-10T16:06:16.669Z,53.83
2018-11-10T16:08:44.824Z,46.20
2018-11-10T16:11:12.996Z,47.97
2018-11-10T16:13:41.151Z,43.53
2018-11-10T16:16:09.312Z,50.27
2018-11-10T16:18:39.363Z,52.10
2018-11-10T16:21:07.514Z,54.00
2018-11-10T16:23:35.672Z,47.70
2018-11-10T16:26:03.851Z,54.77
2018-11-10T16:28:32.074Z,46.13
2018-11-10T16:31:00.261Z,45.60
2018-11-10T16:33:28.461Z,55.67
2018-11-10T16:35:56.709Z,48.23
2018-11-10T16:38:24.928Z,45.37
2018-11-10T16:40:53.101Z,49.87
2018-11-10T16:43:21.281Z,52.13
2018-11-10T16:45:49.526Z,54.47
2018-11-10T16:48:17.677Z,49.97
2018-11-10T16:50:45.806Z,49.87
2018-11-10T16:53:13.997Z,45.13
2018-11-10T16:55:42.151Z,47.57
2018-11-10T16:58:10.307Z,66.10
2018-11-10T17:00:38.530Z,54.57
2018-11-10T17:03:06.673Z,47.70
2018-11-10T17:05:34.901Z,51.23
2018-11-10T17:08:03.122Z,54.70
2018-11-10T17:10:31.313Z,62.33
2018-11-10T17:12:59.424Z,50.37
2018-11-10T17:15:27.689Z,49.70
2018-11-10T17:17:55.876Z,55.70
2018-11-10T17:20:24.033Z,53.13
2018-11-10T17:22:52.233Z,55.70
2018-11-10T17:25:20.465Z,60.53
2018-11-10T17:27:48.648Z,257.87
2018-11-10T17:30:19.562Z,51.47
2018-11-10T17:32:47.977Z,65.80
2018-11-10T17:35:16.211Z,57.17
2018-11-10T17:37:44.750Z,56.67
2018-11-10T17:40:13.570Z,55.80
2018-11-10T17:42:41.744Z,52.87
2018-11-10T17:45:12.021Z,52.33
2018-11-10T17:47:40.209Z,54.40
2018-11-10T17:50:09.805Z,59.30
2018-11-10T17:52:38.541Z,53.83
2018-11-10T17:55:07.218Z,61.00
2018-11-10T17:57:35.432Z,59.10
2018-11-10T18:00:04.035Z,54.60
2018-11-10T18:02:32.258Z,54.20
2018-11-10T18:05:00.418Z,58.67
2018-11-10T18:07:28.592Z,58.17
2018-11-10T18:09:56.839Z,57.13
2018-11-10T18:12:25.138Z,59.77
2018-11-10T18:14:53.480Z,61.07
2018-11-10T18:17:21.914Z,54.97
2018-11-10T18:19:50.106Z,60.13
2018-11-10T18:22:18.294Z,57.80
2018-11-10T18:24:46.630Z,57.87
2018-11-10T18:27:14.899Z,56.37
2018-11-10T18:29:43.119Z,63.10
2018-11-10T18:32:11.507Z,64.87
2018-11-10T18:34:39.744Z,60.50
2018-11-10T18:37:08.038Z,62.70
2018-11-10T18:39:36.309Z,56.20
2018-11-10T18:42:04.416Z,60.37
2018-11-10T18:44:32.622Z,55.73
2018-11-10T18:47:00.840Z,59.33
2018-11-10T18:49:29.126Z,57.00
2018-11-10T18:51:57.462Z,62.27
2018-11-10T18:54:25.642Z,58.43
2018-11-10T18:56:53.888Z,57.43
2018-11-10T18:59:22.089Z,68.33
2018-11-10T19:01:50.277Z,65.13
2018-11-10T19:04:18.490Z,64.17
2018-11-10T19:06:46.658Z,60.90
2018-11-10T19:09:14.824Z,60.90
2018-11-10T19:11:42.994Z,61.63
2018-11-10T19:14:11.159Z,66.07
2018-11-10T19:16:39.357Z,64.17
2018-11-10T19:19:07.923Z,62.27
2018-11-10T19:21:36.116Z,62.87
2018-11-10T19:24:04.567Z,61.53
2018-11-10T19:26:32.734Z,68.73
2018-11-10T19:29:00.943Z,58.80
2018-11-10T19:31:29.145Z,61.27
2018-11-10T19:33:57.382Z,64.33
2018-11-10T19:36:25.579Z,64.93
2018-11-10T19:38:53.833Z,68.40
2018-11-10T19:41:22.050Z,60.43
2018-11-10T19:43:50.320Z,64.30
2018-11-10T19:46:19.413Z,66.83
2018-11-10T19:48:47.643Z,70.87
2018-11-10T19:51:16.754Z,65.30
2018-11-10T19:53:44.958Z,60.13
2018-11-10T19:56:13.384Z,64.30
2018-11-10T19:58:41.579Z,63.60
2018-11-10T20:01:10.590Z,66.53
2018-11-10T20:03:38.900Z,63.17
2018-11-10T20:06:07.177Z,64.77
2018-11-10T20:08:35.365Z,65.23
2018-11-10T20:11:03.556Z,62.43
2018-11-10T20:13:31.751Z,65.23
2018-11-10T20:16:00.007Z,71.23
2018-11-10T20:18:28.297Z,72.70
2018-11-10T20:20:56.508Z,75.23
2018-11-10T20:23:24.785Z,70.47
2018-11-10T20:25:52.965Z,69.63
2018-11-10T20:28:21.192Z,76.60
2018-11-10T20:30:49.386Z,72.23
2018-11-10T20:33:17.610Z,71.47
2018-11-10T20:35:45.913Z,72.97
2018-11-10T20:38:14.118Z,68.60
2018-11-10T20:40:42.949Z,67.27
2018-11-10T20:43:11.250Z,72.50
2018-11-10T20:45:40.186Z,78.10
2018-11-10T20:48:08.408Z,73.57
2018-11-10T20:50:36.659Z,81.67
2018-11-10T20:53:05.062Z,67.03
2018-11-10T20:55:33.250Z,73.50
2018-11-10T20:58:01.459Z,76.57
2018-11-10T21:00:30.092Z,76.30
2018-11-10T21:02:58.278Z,78.57
2018-11-10T21:05:26.495Z,75.00
2018-11-10T21:07:54.767Z,77.57
2018-11-10T21:10:22.976Z,80.17
2018-11-10T21:12:51.546Z,69.63
2018-11-10T21:15:20.467Z,80.00
2018-11-10T21:17:49.468Z,74.47
2018-11-10T21:20:18.299Z,68.17
2018-11-10T21:22:46.491Z,69.93
2018-11-10T21:25:16.296Z,70.13
2018-11-10T21:27:44.912Z,75.80
2018-11-10T21:30:15.507Z,73.07
2018-11-10T21:32:44.134Z,75.53
2018-11-10T21:35:12.503Z,73.17
2018-11-10T21:37:40.684Z,74.30
2018-11-10T21:40:11.433Z,76.60
2018-11-10T21:42:39.945Z,72.27
2018-11-10T21:45:09.124Z,71.07
2018-11-10T21:47:37.365Z,74.03
2018-11-10T21:50:07.642Z,77.33
2018-11-10T21:52:35.973Z,72.30
2018-11-10T21:55:05.545Z,77.00
2018-11-10T21:57:34.104Z,69.97
2018-11-10T22:00:02.318Z,78.40
2018-11-10T22:02:30.585Z,75.37
2018-11-10T22:04:58.756Z,71.37
2018-11-10T22:07:26.955Z,71.13
2018-11-10T22:09:55.210Z,80.23
2018-11-10T22:12:23.408Z,66.33
2018-11-10T22:14:51.590Z,71.70
2018-11-10T22:17:19.844Z,77.63
2018-11-10T22:19:47.989Z,71.37
2018-11-10T22:22:16.163Z,67.47
2018-11-10T22:24:44.321Z,68.33
2018-11-10T22:27:12.522Z,61.73
2018-11-10T22:29:40.668Z,64.07
2018-11-10T22:32:08.850Z,72.93
2018-11-10T22:34:37.029Z,67.97
2018-11-10T22:37:05.255Z,66.93
2018-11-10T22:39:33.398Z,64.47
2018-11-10T22:42:01.573Z,67.20
2018-11-10T22:44:29.769Z,65.83
2018-11-10T22:46:57.929Z,72.67
2018-11-10T22:49:26.089Z,69.67
2018-11-10T22:51:54.215Z,65.03
2018-11-10T22:54:22.443Z,70.87
2018-11-10T22:56:50.607Z,71.07
2018-11-10T22:59:18.760Z,72.63
2018-11-10T23:01:46.970Z,63.30
2018-11-10T23:04:15.138Z,70.40
2018-11-10T23:06:43.292Z,64.17
2018-11-10T23:09:11.402Z,65.63
2018-11-10T23:11:39.533Z,69.67
2018-11-10T23:14:07.681Z,76.27
2018-11-10T23:16:35.812Z,73.23
2018-11-10T23:19:04.038Z,73.17
2018-11-10T23:21:32.186Z,73.43
2018-11-10T23:24:00.341Z,79.63
2018-11-10T23:26:28.492Z,72.03
2018-11-10T23:28:56.677Z,71.10
2018-11-10T23:31:24.821Z,74.80
2018-11-10T23:33:53.001Z,70.37
2018-11-10T23:36:21.128Z,77.50
2018-11-10T23:38:49.304Z,75.30
2018-11-10T23:41:17.477Z,85.27
2018-11-10T23:43:45.612Z,82.33
2018-11-10T23:46:13.749Z,79.40
2018-11-10T23:48:41.891Z,78.70
2018-11-10T23:51:10.063Z,69.13
2018-11-10T23:53:38.183Z,74.97
2018-11-10T23:56:06.325Z,78.80
2018-11-10T23:58:34.495Z,71.90
